METAR LDZA 120130Z 26003KT 9999 -RA NSC 15/12 Q1006 RERA NOSIG=
METAR LDZA 120100Z 22008KT 9999 RA FEW033 15/12 Q1007 TEMPO -RA=
METAR LDZA 120030Z 25017KT 220V280 9999 -RA FEW033 16/12 Q1006 BECMG 22008KT TEMPO RA=
METAR LDZA 120000Z 24009KT CAVOK 18/11 Q1007 NOSIG=
METAR LDZA 112330Z 26009KT 230V300 CAVOK 18/10 Q1007 NOSIG=
METAR LDZA 112300Z 25011KT CAVOK 19/10 Q1007 BECMG 24008KT=
METAR LDZA 112230Z 25014KT CAVOK 19/10 Q1007 BECMG 24008KT=
METAR LDZA 112200Z 24014KT 200V280 CAVOK 20/11 Q1007 BECMG 24008KT=
METAR LDZA 112130Z 23005KT CAVOK 19/12 Q1007 BECMG 24008KT=
METAR LDZA 112100Z 22005KT CAVOK 19/12 Q1006 BECMG 24008KT=
METAR LDZA 112030Z VRB01KT CAVOK 19/12 Q1007 BECMG 24008KT=
METAR LDZA 112000Z 00000KT CAVOK 19/12 Q1006 BECMG 24008KT=
METAR LDZA 111930Z VRB01KT CAVOK 20/12 Q1007 BECMG 24008KT=
METAR LDZA 111900Z 00000KT CAVOK 21/12 Q1007 BECMG 24008KT=
METAR LDZA 111830Z 00000KT CAVOK 22/11 Q1007 NOSIG=
METAR LDZA 111800Z 00000KT CAVOK 23/12 Q1007 NOSIG=
METAR LDZA 111730Z 10003KT CAVOK 25/11 Q1007 NOSIG=
METAR LDZA 111700Z 10005KT 080V140 CAVOK 26/10 Q1007 NOSIG=
METAR LDZA 111630Z 11004KT 070V150 CAVOK 27/10 Q1007 NOSIG=
METAR LDZA 111600Z 11005KT 060V140 CAVOK 28/10 Q1007 NOSIG=
METAR LDZA 111530Z 11005KT 080V150 CAVOK 28/11 Q1008 NOSIG=
METAR LDZA 111500Z 12003KT 080V160 CAVOK 28/11 Q1008 NOSIG=
METAR LDZA 111430Z 10006KT 050V140 CAVOK 28/12 Q1008 NOSIG=
METAR LDZA 111400Z 12006KT 080V180 CAVOK 28/11 Q1009 NOSIG=
METAR LDZA 111330Z VRB04KT CAVOK 28/10 Q1009 NOSIG=
METAR LDZA 111300Z VRB02KT CAVOK 28/10 Q1009 NOSIG=
METAR LDZA 111230Z VRB01KT CAVOK 28/11 Q1010 NOSIG=
METAR LDZA 111200Z 24004KT 160V300 CAVOK 27/10 Q1011 NOSIG=
METAR LDZA 111130Z VRB01KT CAVOK 27/10 Q1011 NOSIG=
METAR LDZA 111100Z 23006KT 160V280 CAVOK 26/09 Q1012 NOSIG=
METAR LDZA 111030Z 26004KT 200V350 CAVOK 26/10 Q1012 NOSIG=
METAR LDZA 111000Z 22006KT 170V290 CAVOK 25/09 Q1012 NOSIG=
METAR LDZA 110930Z 22004KT 140V280 CAVOK 25/09 Q1012 NOSIG=
METAR LDZA 110900Z 24004KT 190V280 CAVOK 23/10 Q1013 NOSIG=
METAR LDZA 110830Z 27003KT 190V350 CAVOK 23/10 Q1013 NOSIG=
METAR LDZA 110800Z 25005KT 200V300 CAVOK 22/09 Q1013 NOSIG=
METAR LDZA 110730Z 25004KT 210V300 CAVOK 21/12 Q1013 NOSIG=
METAR LDZA 110700Z VRB02KT CAVOK 19/12 Q1013 NOSIG=
METAR LDZA 110630Z 22003KT 190V260 CAVOK 18/11 Q1013 NOSIG=
METAR LDZA 110600Z 00000KT CAVOK 16/10 Q1013 NOSIG=
METAR LDZA 110530Z 26003KT 230V300 CAVOK 14/10 Q1013 NOSIG=
METAR LDZA 110500Z 00000KT CAVOK 12/09 Q1013 NOSIG=
METAR LDZA 110430Z 00000KT CAVOK 11/08 Q1013 NOSIG=
METAR LDZA 110400Z 21001KT CAVOK 10/07 Q1013 NOSIG=
METAR LDZA 110330Z 21005KT CAVOK 10/07 Q1013 NOSIG=
METAR LDZA 110300Z 23005KT CAVOK 10/07 Q1013 NOSIG=
METAR LDZA 110230Z 24004KT CAVOK 11/07 Q1013 NOSIG=
METAR LDZA 110200Z 25003KT CAVOK 11/07 Q1013 NOSIG=
METAR LDZA 110130Z 25003KT CAVOK 11/07 Q1014 NOSIG=
METAR LDZA 110100Z 24004KT CAVOK 11/08 Q1014 NOSIG=
METAR LDZA 110030Z 24005KT CAVOK 11/08 Q1014 NOSIG=
METAR LDZA 110000Z 24006KT CAVOK 12/08 Q1014 NOSIG=
METAR LDZA 102330Z 26006KT CAVOK 13/08 Q1014 NOSIG=
METAR LDZA 102300Z 24006KT CAVOK 13/08 Q1014 NOSIG=
METAR LDZA 102230Z 24006KT CAVOK 14/08 Q1014 NOSIG=
METAR LDZA 102200Z 25006KT CAVOK 15/09 Q1014 NOSIG=
METAR LDZA 102130Z 25007KT CAVOK 15/09 Q1014 NOSIG=
METAR LDZA 102100Z 23005KT CAVOK 16/09 Q1014 NOSIG=
METAR LDZA 102030Z 23007KT CAVOK 16/09 Q1014 NOSIG=
METAR LDZA 102000Z 22006KT CAVOK 17/09 Q1014 NOSIG=
METAR LDZA 101930Z 24005KT CAVOK 18/08 Q1014 NOSIG=
METAR LDZA 101900Z 24006KT CAVOK 19/09 Q1014 NOSIG=
METAR LDZA 101830Z 24005KT CAVOK 21/09 Q1014 NOSIG=
METAR LDZA 101800Z 24007KT CAVOK 23/09 Q1014 BECMG 22005KT=
METAR LDZA 101730Z 24009KT CAVOK 24/09 Q1013 BECMG 22005KT=
METAR LDZA 101700Z 25007KT CAVOK 25/11 Q1014 BECMG 22005KT=
METAR LDZA 101630Z 26008KT CAVOK 27/10 Q1013 BECMG 22005KT=
METAR LDZA 101600Z 26010KT CAVOK 27/10 Q1013 NOSIG=
METAR LDZA 101530Z 25010KT 210V290 CAVOK 28/09 Q1013 NOSIG=
METAR LDZA 101500Z 26012KT 230V300 CAVOK 28/10 Q1013 NOSIG=
METAR LDZA 101430Z 26011KT 230V300 CAVOK 28/09 Q1013 NOSIG=
METAR LDZA 101400Z 26013KT 230V290 CAVOK 28/10 Q1014 NOSIG=